NWS Home NWS Lubbock West Texas Mesonet Central Sector Latest Conditions as of 1122 PM, Thu Apr 26, 2018

Latest   N   C   S   Daily Sum   3hrΔ   24hrΔ   Soil Data 
Site Map   24hr Precip   72hr Precip   Google Plot


Station Time of Last Temp Dew Pt. RH Wind Direction Wind Speed Wind Gust Max Wind Max Temp Min Temp Max RH Min RH Altimeter 1HR Rain Today's Rain Solar Rad Red Flag
Abernathy 5ENE  11:15 PM 54 33 46% N1316 42 mph 7° @ 0640 PM 78 36 85 20 30.19" 0 0.00 0  
Aiken 3WSW  11:15 PM 52 40 65% NE1113 42 mph 347° @ 0618 PM 79 32 88 21 30.21" 0 0.00 0  
Amherst 1NE  11:15 PM 53 33 48% NE1317 44 mph 8° @ 0445 PM 76 38 70 18 30.21" 0 0.00 0  
Anton 6SSW  11:15 PM 57 33 42% N1823 43 mph 356° @ 0520 PM 80 37 77 19 30.19" 0 0.00 0  
Aspermont 3NE  11:15 PM 63 45 52% NW1218 25 mph 319° @ 1005 PM 81 37 100 16 30.03" 0 0.00 0  
Bootleg 11WNW  11:10 PM 46 26 46% N99 47 mph 7° @ 0210 PM 69 36 72 21 30.28" 0 0.00 0  
Brownfield 2S  11:15 PM 60 30 33% N1824 43 mph 353° @ 0445 PM 81 39 80 16 30.16" 0 0.00 0  
Caprock Canyons State Park  11:15 PM 54 44 68% N56 43 mph 355° @ 0634 PM 79 39 82 15 30.18" 0 0.00 0  
Childress 2NNE  11:15 PM 52 48 87% N89 41 mph 31° @ 0945 PM 80 42 90 16 30.13" 0.01 0.01 0  
Clarendon 2WSW  11:15 PM 48 43 82% N67 45 mph 353° @ 0710 PM 77 35 91 23 30.18" 0 0.00 0  
Claude 12SW  11:15 PM 49 35 59% N910 47 mph 357° @ 0600 PM 72 41 66 26 30.20" 0 0.00 0  
Crowell 1E  11:15 PM 55 52 91% NE2633 44 mph 16° @ 1022 PM 81 42 94 22 30.15" 0.14 0.19 0  
Denver City 7WNW  11:15 PM 58 27 31% NE1621 44 mph 11° @ 0530 PM 82 40 82 10 30.17" 0 0.00 0 155
Dimmitt 2NE  11:15 PM 51 33 50% N1719 48 mph 357° @ 0325 PM 71 40 64 21 30.22" 0 0.00 0  
Dora NM 2SW  11:15 PM 50 29 44% NE910 41 mph 25° @ 0610 PM 76 41 74 17 30.24" 0 0.00 0  
Earth 9WSW  11:15 PM 49 33 52% N912 42 mph 11° @ 0457 PM 76 33 80 18 30.23" 0 0.00 0  
Floydada 2NNE  11:15 PM 53 42 69% NE1418 35 mph 336° @ 0545 PM 79 36 82 15 30.18" 0 0.00 0  
Fluvanna 3WNW  11:15 PM 63 36 37% N2434 35 mph 343° @ 0740 PM 80 39 86 15 30.11" 0 0.00 0  
Friona 2NE  11:15 PM 46 32 58% N77 46 mph 1° @ 0250 PM 70 35 79 20 30.25" 0 0.00 0  
Gail 2ESE  11:15 PM 64 34 33% N2126 33 mph 348° @ 0855 PM 83 37 89 16 30.10" 0 0.00 0  
Goodlett 3W  11:15 PM 54 48 81% NE2027 45 mph 15° @ 0935 PM 81 40 90 19 30.11" 0.02 0.02 0  
Graham 5SSW  11:15 PM 61 34 36% N2129 42 mph 359° @ 0815 PM 81 44 81 16 30.12" 0 0.00 0  
Guthrie 10WSW  11:15 PM 57 46 70% N2637 46 mph 16° @ 1055 PM 83 41 85 12 30.10" 0 0.00 0  
Happy 1E  11:15 PM 51 34 52% N1113 46 mph 351° @ 0436 PM 73 34 71 23 30.23" 0 0.00 0  
Hart 3N  11:15 PM 50 35 58% N1215 45 mph 348° @ 0505 PM 73 33 78 22 30.22" 0 0.00 0  
Haskell 1NW  11:15 PM 65 43 47% E45 19 mph 219° @ 1130 AM 77 40 100 20 30.03" 0 0.00 0  
Hereford 2NW  11:15 PM 46 32 57% N57 50 mph 7° @ 0400 PM 71 34 77 19 30.24" 0 0.00 0  
Hobbs NM 5NW  11:15 PM 60 27 29% NE1518 41 mph 21° @ 0555 PM 84 43 78 10 30.20" 0 0.00 0 135
Jayton 1SSE  11:15 PM 61 45 57% N2131 40 mph 346° @ 1040 PM 82 41 92 13 30.07" 0 0.00 0  
Knox City 3NW  11:15 PM 64 46 55% N2945 45 mph 20° @ 1115 PM 81 38 93 16 30.09" 0 0.01 0  
Lake Alan Henry 1NW  11:15 PM 63 39 41% N2023 35 mph 168° @ 0138 PM 83 43 79 12 30.10" 0 0.00 0  
Lamesa 2SE  11:15 PM 62 30 30% N1825 36 mph 357° @ 0600 PM 83 39 89 17 30.14" 0 0.00 0  
Lesley 2S  11:15 PM 53 44 71% N88 43 mph 324° @ 0624 PM 82 34 90 21 30.16" 0 0.00 0  
Levelland 4S  11:10 PM 56 30 36% N1521 47 mph 344° @ 0350 PM 82 40 75 15 30.19" 0 0.00 0 30
Lubbock 3WNW TTU  11:15 PM 58 30 35% N1217 37 mph 359° @ 0720 PM 80 40 75 16 30.18" 0 0.00 0  
Memphis 1NE  11:15 PM 54 45 74% N47 43 mph 3° @ 0815 PM 79 34 92 21 30.15" 0 0.00 0  
Morton 1ENE  11:15 PM 56 30 37% NE1317 43 mph 15° @ 0430 PM 80 40 70 15 30.21" 0 0.00 0 25
Muleshoe 2SSW  11:15 PM 53 33 46% NE811 41 mph 14° @ 0320 PM 74 30 83 18 30.22" 0 0.00 0  
New Home  11:15 PM 60 31 33% N1519 37 mph 12° @ 0436 PM 80 38 79 17 30.17" 0 0.00 0  
Northfield 1S  11:10 PM 57 44 62% NE812 45 mph 11° @ 0925 PM 82 37 83 13 30.15" 0 0.00 0  
O'Donnell 1N  11:15 PM 60 27 29% N1823 45 mph 338° @ 0520 PM 82 38 85 15 30.14" 0 0.00 0 20
Odell 4ENE  11:15 PM 54 51 89% N1216 34 mph 8° @ 0946 PM 77 38 97 25 30.16" 0.15 0.29 0  
Olton 6S  11:15 PM 54 33 46% N1518 42 mph 2° @ 0535 PM 75 34 83 19 30.21" 0 0.00 0  
Paducah 10SW  11:15 PM 55 46 72% NE2230 45 mph 34° @ 1025 PM 82 39 88 14 30.14" 0 0.00 0  
Palo Duro 4E (JA Ranch)  11:15 PM 47 41 81% NW1010 40 mph 346° @ 0623 PM 81 28 95 20 30.18" 0 0.00 0  
Palo Duro Canyon SP Floor  11:15 PM 54 36 50% NW44 41 mph 346° @ 0558 PM 77 34 86 22 30.20" 0 0.00 0  
Palo Duro Canyon State Park Rim  11:15 PM 55 35 47% N1115 46 mph 15° @ 0444 PM 72 38 69 25 30.22" 0 0.00 0  
Plains 3N  11:15 PM 57 29 34% N1218 42 mph 352° @ 0415 PM 83 36 86 9 30.19" 0 0.00 0 165
Plainview 1S  11:15 PM 55 35 47% N913 41 mph 346° @ 0645 PM 75 37 80 22 30.20" 0 0.00 0  
Post 1NE  11:15 PM 62 37 39% N1625 35 mph 347° @ 0735 PM 83 47 70 13 30.13" 0 0.00 0  
Ralls 1SE  11:15 PM 55 41 59% NE2635 37 mph 353° @ 0730 PM 79 37 77 14 30.18" 0 0.00 0  
Reese Center  11:15 PM 56 31 39% N1723 42 mph 0° @ 0430 PM 79 34 85 17 30.18" 0 0.00 0  
Roaring Springs 3N  11:15 PM 54 45 74% NE1523 40 mph 356° @ 0950 PM 81 38 87 15 30.17" 0 0.00 0  
Rotan 5W  11:15 PM 66 41 41% NW2125 35 mph 332° @ 0941 PM 78 43 91 21 30.07" 0 0.00 0  
Seagraves 1SW  11:15 PM 59 30 33% N1321 44 mph 358° @ 0450 PM 84 39 87 16 30.17" 0 0.00 0  
Seminole 2NNE  11:15 PM 61 27 28% N2127 44 mph 349° @ 0505 PM 85 43 83 10 30.16" 0 0.00 0 145
Seymour 3NW  11:15 PM 58 52 82% N2433 33 mph 351° @ 1115 PM 77 37 100 27 30.12" 0.10 0.10 0  
Silverton 7ESE  11:15 PM 49 40 72% NE68 39 mph 351° @ 0525 PM 78 31 85 15 30.19" 0 0.00 0  
Slaton 2NE  11:15 PM 59 34 38% N1827 46 mph 2° @ 0435 PM 79 42 73 14 30.16" 0 0.00 0  
Snyder 3E  11:15 PM 65 40 42% N2740 40 mph 355° @ 1115 PM 80 40 100 19 30.08" 0 0.00 0  
Snyder 3SSW  11:15 PM 66 40 39% N1821 29 mph 346° @ 1018 PM 80 38 98 20 30.10" 0 0.00 0  
Spur 1W  11:15 PM 57 45 66% N2436 44 mph 3° @ 1035 PM 81 37 86 12 30.10" 0 0.00 0  
Stamford 5ESE  11:15 PM 63 45 51% SE34 17 mph 114° @ 0748 PM 79 37 99 23 30.03" 0 0.00 0  
Sundown 8WSW  11:15 PM 56 30 38% N1418 43 mph 1° @ 0505 PM 83 36 84 14 30.19" 0 0.00 0 55
Tahoka 3NNE  11:15 PM 58 29 33% N1517 39 mph 352° @ 0536 PM 82 39 82 14 30.15" 0 0.00 0  
Tatum NM 2SW  11:15 PM 56 27 32% NE1621 42 mph 14° @ 0555 PM 80 40 80 12 30.21" 0 0.00 0 195
Throckmorton 1SW  11:15 PM 60 46 61% NE45 16 mph 105° @ 0806 PM 78 41 98 30 30.03" 0 0.00 0  
Tulia 2ENE  11:15 PM 47 34 61% N57 45 mph 357° @ 0550 PM 75 38 72 26 30.21" 0 0.00 0  
Turkey 2WSW  11:15 PM 54 45 72% N67 41 mph 337° @ 0815 PM 79 41 79 15 30.16" 0 0.00 0  
Umbarger 3NNE  11:15 PM 46 32 58% N99 48 mph 27° @ 0438 PM 71 35 73 23 30.24" 0 0.00 0  
Vigo Park  11:15 PM 49 40 70% NE89 42 mph 339° @ 0440 PM 77 32 84 23 30.21" 0 0.00 0  
Weinert 2NNE  11:15 PM 63 46 52% NE2024 31 mph 10° @ 1108 PM 80 38 94 22 30.10" 0 0.00 0  
Welch  11:15 PM 60 32 33% N2126 43 mph 344° @ 0505 PM 83 38 91 18 30.16" 0 0.00 0  
White River Lake 6NW  11:15 PM 56 42 62% N2941 42 mph 338° @ 0820 PM 82 46 69 12 30.14" 0 0.00 0  
Wolfforth 6SSW  11:15 PM 58 32 38% N2128 41 mph 350° @ 0430 PM 81 35 75 18 30.17" 0 0.00 0  

West Texas Mesonet Home   Site Map/Menu  NWS Lubbock Soil Data  Daily Summary Page  24hr Precip  72hr Precip  Google Plot